Accueil
METAR-TAF:

METAR-TAF

Aéroports :

Brighton, Angleterre

Aéroport de Shoreham

latitude: 50-50N, longitude: 000-17W, altitude: 2 m

Observation

Le bulletin a été fait il y a 8 heures et 45 minutes, à 17:50 UTC
Vent 9 kt de est/sud-est
Température 12°C
Humidité 88%
Pression 997 hPa
Visibilité 10 km ou plus
Nuages épars à une hauteur de 4500 ft
pluie faible

METAR: EGKA 301750Z 12009KT 9999 -RA SCT045 12/10 Q0997

Heure: 03:35 (02:35 UTC)

Prévision

Le bulletin a été fait il y a 11 heures et 34 minutes, à 15:01 UTC
Prévision valable du 30 à 15 UTC au 30 à 18 UTC
Vent 10 kt de est
Visibilité 10 km ou plus
Nuages fragmentés à une hauteur de 4500 ft
Evoluant progressivement
du 30 à 15 UTC au 30 à 18 UTC
Vent 8 kt de sud
Temporairement
du 30 à 15 UTC au 30 à 18 UTC
Visibilité: 7000 m
pluie

TAF: EGKA 301501Z 3015/3018 10010KT 9999 BKN045 BECMG 3015/3018 18008KT TEMPO 3015/3018 7000 RA

Observations et prévisions météorologiques de plus de 4000 aéroports (messages METAR et TAF).

Les stations disponibles sont représentées par des disques jaunes et rouges sur la carte.

Passer la souris dessus pour voir le nom de la station.

Cliquer dessus pour voir les observations et prévisions météorologiques.

Pour changer de carte: cliquez sur les boutons verts avec une croix noire pour zoomer, sur le bouton vert avec un tiret pour effectuer un zoom arrière, ou sur les flèches vertes pour les cartes adjacentes.


METAR-TAF: